Time;durP1;ratioP1;P1;durP2;ratioP2;P2;SDS_P1;SDS_P2;PMS_P1;PMS_P2;Temp;Humidity;BMP_temperature;BMP_pressure;BME280_temperature;BME280_humidity;BME280_pressure;Samples;Min_cycle;Max_cycle;Signal;HPM_P1;HPM_P2
2024/03/14 00:01:00;;;;;;;5.03;3.90;;;6.40;99.90;;;;;;493989;238;28544;-74
2024/03/14 00:03:01;;;;;;;3.27;3.03;;;6.30;99.90;;;;;;493957;241;28278;-73
2024/03/14 00:05:01;;;;;;;3.50;3.20;;;6.30;99.90;;;;;;493981;241;27941;-73
2024/03/14 00:07:03;;;;;;;4.45;3.70;;;6.20;99.90;;;;;;494037;241;28021;-75
2024/03/14 00:09:04;;;;;;;4.40;4.00;;;6.30;99.90;;;;;;493968;241;27453;-72
2024/03/14 00:11:05;;;;;;;4.87;3.63;;;6.20;99.90;;;;;;493950;241;28962;-73
2024/03/14 00:13:06;;;;;;;5.85;3.67;;;6.30;99.90;;;;;;493937;241;28670;-72
2024/03/14 00:15:11;;;;;;;3.90;3.60;;;6.30;99.90;;;;;;493978;241;27925;-72
2024/03/14 00:17:09;;;;;;;7.20;4.60;;;6.30;99.90;;;;;;493731;241;28116;-74
2024/03/14 00:19:11;;;;;;;5.43;3.97;;;6.40;99.90;;;;;;493940;241;28594;-72
2024/03/14 00:21:11;;;;;;;8.40;4.60;;;6.40;99.90;;;;;;493919;241;28546;-73
2024/03/14 00:23:13;;;;;;;5.60;4.20;;;6.40;99.90;;;;;;493998;241;27689;-73
2024/03/14 00:25:15;;;;;;;3.87;3.40;;;6.40;99.90;;;;;;493971;241;28038;-73
2024/03/14 00:27:15;;;;;;;4.03;3.53;;;6.30;99.90;;;;;;493958;241;28873;-73
2024/03/14 00:29:16;;;;;;;6.17;3.50;;;6.30;99.90;;;;;;493927;241;27504;-73
2024/03/14 00:31:19;;;;;;;4.83;3.40;;;6.30;99.90;;;;;;493929;237;27986;-73
2024/03/14 00:33:19;;;;;;;4.72;3.60;;;6.30;99.90;;;;;;493854;241;28776;-74
2024/03/14 00:35:21;;;;;;;2.83;2.60;;;6.30;99.90;;;;;;493988;237;27568;-73
2024/03/14 00:37:21;;;;;;;4.43;3.73;;;6.30;99.90;;;;;;493863;241;27964;-73
2024/03/14 00:39:23;;;;;;;4.30;3.85;;;6.30;99.90;;;;;;493883;241;28930;-73
2024/03/14 00:41:24;;;;;;;4.87;3.67;;;6.30;99.90;;;;;;493974;241;28008;-72
2024/03/14 00:43:25;;;;;;;3.73;3.03;;;6.30;99.90;;;;;;493864;237;28107;-74
2024/03/14 00:45:26;;;;;;;6.27;4.50;;;6.30;99.90;;;;;;493949;241;28400;-74
2024/03/14 00:47:28;;;;;;;5.00;4.17;;;6.30;99.90;;;;;;493893;241;28572;-74
2024/03/14 00:49:29;;;;;;;4.07;3.22;;;6.30;99.90;;;;;;493939;241;27803;-76
2024/03/14 00:51:30;;;;;;;3.30;3.00;;;6.30;99.90;;;;;;493923;241;27591;-73
2024/03/14 00:53:31;;;;;;;4.12;3.80;;;6.20;99.90;;;;;;493969;241;27964;-74
2024/03/14 00:55:33;;;;;;;3.97;3.60;;;6.20;99.90;;;;;;493946;241;27578;-72
2024/03/14 00:57:35;;;;;;;5.10;3.50;;;6.20;99.90;;;;;;493932;241;27517;-73
2024/03/14 00:59:35;;;;;;;3.20;2.90;;;6.20;99.90;;;;;;493936;241;28140;-75
2024/03/14 01:01:36;;;;;;;3.27;2.97;;;6.20;99.90;;;;;;493994;241;28015;-73
2024/03/14 01:03:38;;;;;;;4.05;2.80;;;6.20;99.90;;;;;;493950;241;29439;-74
2024/03/14 01:05:39;;;;;;;4.78;3.70;;;6.20;99.90;;;;;;493947;237;27942;-74
2024/03/14 01:07:40;;;;;;;6.23;3.77;;;6.30;99.90;;;;;;493924;241;27612;-76
2024/03/14 01:09:41;;;;;;;7.37;3.50;;;6.20;99.90;;;;;;493963;241;28997;-74
2024/03/14 01:11:43;;;;;;;4.15;3.75;;;6.20;99.90;;;;;;493958;241;28376;-73
2024/03/14 01:13:44;;;;;;;4.55;3.35;;;6.20;99.90;;;;;;493930;241;27484;-72
2024/03/14 01:15:45;;;;;;;5.57;3.37;;;6.20;99.90;;;;;;493946;241;27483;-73
2024/03/14 01:17:46;;;;;;;3.10;2.90;;;6.20;99.90;;;;;;493947;241;27603;-73
2024/03/14 01:19:48;;;;;;;5.17;3.67;;;6.30;99.90;;;;;;493996;241;28007;-74
2024/03/14 01:21:51;;;;;;;4.37;3.93;;;6.30;99.90;;;;;;493956;241;29316;-73
2024/03/14 01:23:50;;;;;;;6.97;4.60;;;6.30;99.90;;;;;;493837;241;29530;-73
2024/03/14 01:25:51;;;;;;;9.02;3.65;;;6.30;99.90;;;;;;493983;241;28037;-72
2024/03/14 01:27:53;;;;;;;4.75;3.47;;;6.40;99.90;;;;;;493954;241;27509;-72
2024/03/14 01:29:54;;;;;;;7.30;4.18;;;6.30;99.90;;;;;;493966;241;27572;-74
2024/03/14 01:31:55;;;;;;;4.27;3.87;;;6.30;99.90;;;;;;493945;241;27569;-73
2024/03/14 01:33:57;;;;;;;4.00;3.10;;;6.30;99.90;;;;;;493944;241;29196;-74
2024/03/14 01:36:00;;;;;;;5.47;3.50;;;6.30;99.90;;;;;;494008;241;28851;-75
2024/03/14 01:38:02;;;;;;;3.35;3.05;;;6.30;99.90;;;;;;493952;241;29281;-75
2024/03/14 01:40:03;;;;;;;4.70;3.23;;;6.30;99.90;;;;;;493975;241;27482;-73
2024/03/14 01:42:05;;;;;;;4.33;3.50;;;6.30;99.90;;;;;;493946;237;28507;-73
2024/03/14 01:44:06;;;;;;;3.87;3.30;;;6.30;99.90;;;;;;493918;241;28583;-73
2024/03/14 01:46:07;;;;;;;4.43;3.20;;;6.30;99.90;;;;;;493947;237;28451;-73
2024/03/14 01:48:08;;;;;;;8.82;3.33;;;6.30;99.90;;;;;;493941;237;27596;-74
2024/03/14 01:50:11;;;;;;;3.72;3.30;;;6.30;99.90;;;;;;493876;237;27474;-74
2024/03/14 01:52:11;;;;;;;5.05;3.55;;;6.30;99.90;;;;;;493802;241;27636;-73
2024/03/14 01:54:12;;;;;;;4.45;3.33;;;6.30;99.90;;;;;;493888;237;27534;-72
2024/03/14 01:56:14;;;;;;;3.77;3.37;;;6.20;99.90;;;;;;493951;241;27561;-73
2024/03/14 01:58:15;;;;;;;3.73;3.33;;;6.20;99.90;;;;;;493839;237;28668;-73
2024/03/14 02:00:18;;;;;;;3.40;2.97;;;6.20;99.90;;;;;;493894;241;29344;-71
2024/03/14 02:02:23;;;;;;;4.62;3.50;;;6.20;99.90;;;;;;493711;241;28568;-73
2024/03/14 02:04:18;;;;;;;4.07;3.67;;;6.20;99.90;;;;;;493458;241;28025;-74
2024/03/14 02:06:19;;;;;;;7.50;3.63;;;6.20;99.90;;;;;;493956;241;27487;-73
2024/03/14 02:08:21;;;;;;;3.85;3.55;;;6.30;99.90;;;;;;493900;241;28450;-73
2024/03/14 02:10:24;;;;;;;5.15;3.75;;;6.30;99.90;;;;;;493907;241;27474;-73
2024/03/14 02:12:23;;;;;;;3.73;3.43;;;6.30;99.90;;;;;;493743;241;27581;-74
2024/03/14 02:14:24;;;;;;;7.40;4.78;;;6.30;99.90;;;;;;493945;241;27858;-74
2024/03/14 02:16:26;;;;;;;4.22;3.67;;;6.30;99.90;;;;;;493961;241;27563;-74
2024/03/14 02:18:27;;;;;;;8.02;4.62;;;6.30;99.90;;;;;;493890;241;28043;-74
2024/03/14 02:20:28;;;;;;;7.57;4.67;;;6.30;99.90;;;;;;493921;241;27521;-73
2024/03/14 02:22:29;;;;;;;6.95;4.20;;;6.30;99.90;;;;;;493988;241;28814;-73
2024/03/14 02:24:31;;;;;;;8.30;5.35;;;6.40;99.90;;;;;;493966;237;27585;-76
2024/03/14 02:26:32;;;;;;;5.25;4.53;;;6.40;99.90;;;;;;493954;241;27485;-73
2024/03/14 02:28:33;;;;;;;9.40;4.62;;;6.40;99.90;;;;;;493866;241;27545;-73
2024/03/14 02:30:34;;;;;;;4.60;3.60;;;6.50;99.90;;;;;;493990;237;28041;-74
2024/03/14 02:32:36;;;;;;;4.32;3.72;;;6.50;99.90;;;;;;493971;241;29314;-74
2024/03/14 02:34:37;;;;;;;10.40;4.90;;;6.50;99.90;;;;;;493944;241;27520;-73
2024/03/14 02:36:38;;;;;;;8.45;4.32;;;6.60;99.90;;;;;;493940;241;28818;-73
2024/03/14 02:38:39;;;;;;;5.65;4.28;;;6.60;99.90;;;;;;493884;241;27517;-73
2024/03/14 02:40:41;;;;;;;12.73;5.60;;;6.70;99.90;;;;;;493942;241;27516;-74
2024/03/14 02:42:42;;;;;;;10.90;5.23;;;6.60;99.90;;;;;;493961;241;28797;-73
2024/03/14 02:44:43;;;;;;;7.50;5.33;;;6.60;99.90;;;;;;493955;241;27737;-73
2024/03/14 02:46:45;;;;;;;7.17;3.90;;;6.60;99.90;;;;;;493928;241;28901;-73
2024/03/14 02:48:46;;;;;;;6.50;4.27;;;6.60;99.90;;;;;;493916;241;28644;-73
2024/03/14 02:50:49;;;;;;;6.40;4.57;;;6.50;99.90;;;;;;493889;241;29381;-73
2024/03/14 02:52:48;;;;;;;6.90;4.75;;;6.50;99.90;;;;;;493797;241;28389;-73
2024/03/14 02:54:50;;;;;;;7.07;4.47;;;6.50;99.90;;;;;;493925;241;27600;-73
2024/03/14 02:56:51;;;;;;;8.98;5.30;;;6.50;99.90;;;;;;493947;241;28656;-73
2024/03/14 02:58:53;;;;;;;7.40;4.33;;;6.60;99.90;;;;;;493957;241;27477;-73
2024/03/14 03:00:56;;;;;;;9.27;4.75;;;6.70;99.90;;;;;;493880;241;28672;-74
2024/03/14 03:02:57;;;;;;;5.97;4.37;;;6.70;99.90;;;;;;493974;241;27526;-73
2024/03/14 03:04:59;;;;;;;10.70;5.50;;;6.70;99.90;;;;;;493942;241;27948;-73
2024/03/14 03:07:05;;;;;;;10.43;5.07;;;6.70;99.90;;;;;;493927;241;27840;-73
2024/03/14 03:09:04;;;;;;;6.80;3.80;;;6.70;99.90;;;;;;493504;241;28511;-74
2024/03/14 03:11:02;;;;;;;6.40;4.37;;;6.60;99.90;;;;;;493694;241;28486;-73
2024/03/14 03:13:05;;;;;;;6.20;4.50;;;6.50;99.90;;;;;;493973;241;28638;-73
2024/03/14 03:15:05;;;;;;;5.95;4.25;;;6.60;99.90;;;;;;493857;241;29341;-73
2024/03/14 03:17:07;;;;;;;5.20;4.63;;;6.60;99.90;;;;;;493952;241;27500;-73
2024/03/14 03:19:09;;;;;;;6.37;4.70;;;6.60;99.90;;;;;;493972;241;28884;-74
2024/03/14 03:21:08;;;;;;;6.93;4.70;;;6.60;99.90;;;;;;493884;241;28882;-72
2024/03/14 03:23:10;;;;;;;7.57;4.50;;;6.60;99.90;;;;;;494018;241;28630;-74
2024/03/14 03:25:14;;;;;;;8.60;5.10;;;6.70;99.90;;;;;;493989;241;28020;-73
2024/03/14 03:27:15;;;;;;;12.37;5.17;;;6.70;99.90;;;;;;493789;241;28660;-73
2024/03/14 03:29:16;;;;;;;7.33;5.13;;;6.70;99.90;;;;;;494008;241;27934;-73
2024/03/14 03:31:18;;;;;;;9.07;5.13;;;6.60;99.90;;;;;;493999;241;28086;-73
2024/03/14 03:33:20;;;;;;;7.90;5.10;;;6.50;99.90;;;;;;493977;241;27948;-73
2024/03/14 03:35:21;;;;;;;7.10;4.10;;;6.60;99.90;;;;;;493939;241;27581;-73
2024/03/14 03:37:21;;;;;;;12.00;5.83;;;6.60;99.90;;;;;;493991;241;29308;-75
2024/03/14 03:39:25;;;;;;;15.00;6.07;;;6.50;99.90;;;;;;493957;241;27603;-73
2024/03/14 03:41:24;;;;;;;11.27;6.00;;;6.60;99.90;;;;;;493818;241;28080;-73
2024/03/14 03:43:26;;;;;;;17.50;7.95;;;6.70;99.90;;;;;;493954;241;28002;-73
2024/03/14 03:45:27;;;;;;;21.63;8.00;;;6.70;99.90;;;;;;493997;241;27512;-73
2024/03/14 03:47:28;;;;;;;29.70;7.90;;;6.80;99.90;;;;;;494014;241;28098;-74
2024/03/14 03:49:29;;;;;;;16.90;6.50;;;6.90;99.90;;;;;;493968;241;27939;-73
2024/03/14 03:51:30;;;;;;;9.13;6.30;;;6.90;99.90;;;;;;493976;241;27870;-73
2024/03/14 03:53:32;;;;;;;11.83;6.97;;;6.90;99.90;;;;;;493976;241;28447;-73
2024/03/14 03:55:33;;;;;;;14.10;6.90;;;6.90;99.90;;;;;;494035;241;28077;-73
2024/03/14 03:57:34;;;;;;;13.90;8.23;;;6.90;99.90;;;;;;494028;241;27965;-74
2024/03/14 03:59:35;;;;;;;29.53;7.83;;;6.90;99.90;;;;;;493958;241;28162;-73
2024/03/14 04:01:36;;;;;;;15.60;7.35;;;6.90;99.90;;;;;;494007;241;28052;-73
2024/03/14 04:03:40;;;;;;;10.17;6.17;;;6.90;99.90;;;;;;494020;241;28070;-73
2024/03/14 04:05:39;;;;;;;23.60;8.15;;;7.00;99.90;;;;;;493708;241;28496;-73
2024/03/14 04:07:40;;;;;;;41.33;9.03;;;7.00;99.90;;;;;;494007;241;27516;-73
2024/03/14 04:09:44;;;;;;;90.50;10.93;;;6.90;99.90;;;;;;493955;241;27821;-72
2024/03/14 04:11:46;;;;;;;67.37;10.83;;;6.80;99.90;;;;;;493983;241;28126;-73
2024/03/14 04:13:47;;;;;;;47.80;8.37;;;6.80;99.90;;;;;;493994;241;27593;-72
2024/03/14 04:15:48;;;;;;;27.87;7.13;;;6.70;99.90;;;;;;493992;241;28166;-73
2024/03/14 04:17:49;;;;;;;16.80;6.40;;;6.60;99.90;;;;;;493926;241;27825;-73
2024/03/14 04:19:51;;;;;;;23.10;6.47;;;6.60;99.90;;;;;;493938;241;29018;-73
2024/03/14 04:21:53;;;;;;;35.07;6.70;;;6.60;99.90;;;;;;493988;241;28553;-73
2024/03/14 04:23:56;;;;;;;44.43;6.03;;;6.50;99.90;;;;;;493950;241;27946;-74
2024/03/14 04:25:56;;;;;;;63.43;6.73;;;6.40;99.90;;;;;;493773;241;28125;-74
2024/03/14 04:27:56;;;;;;;12.30;5.50;;;6.30;99.90;;;;;;493844;241;29322;-73
2024/03/14 04:29:57;;;;;;;7.53;4.47;;;6.20;99.90;;;;;;493978;241;28377;-73
2024/03/14 04:31:58;;;;;;;9.30;4.53;;;6.10;99.90;;;;;;493982;241;27624;-74
2024/03/14 04:34:00;;;;;;;7.62;4.20;;;6.00;99.90;;;;;;493955;241;27473;-72
2024/03/14 04:36:03;;;;;;;8.00;3.80;;;5.90;99.90;;;;;;493954;241;27521;-73
2024/03/14 04:38:02;;;;;;;6.70;3.95;;;5.80;99.90;;;;;;493719;241;28931;-75
2024/03/14 04:40:10;;;;;;;4.85;4.35;;;5.70;99.90;;;;;;493966;241;27476;-74
2024/03/14 04:42:05;;;;;;;4.82;4.00;;;5.60;99.90;;;;;;493350;241;28003;-74
2024/03/14 04:44:07;;;;;;;3.58;3.17;;;5.50;99.90;;;;;;493931;241;27565;-73
2024/03/14 04:46:07;;;;;;;8.50;4.85;;;5.40;99.90;;;;;;493844;241;27665;-74
2024/03/14 04:48:09;;;;;;;10.05;4.85;;;5.40;99.90;;;;;;493961;241;27532;-75
2024/03/14 04:50:10;;;;;;;18.20;6.07;;;5.40;99.90;;;;;;493983;241;27473;-73
2024/03/14 04:52:11;;;;;;;15.43;7.03;;;5.40;99.90;;;;;;493950;241;27557;-74
2024/03/14 04:54:14;;;;;;;14.15;6.55;;;5.40;99.90;;;;;;493888;241;28065;-74
2024/03/14 04:56:13;;;;;;;16.02;7.80;;;5.40;99.90;;;;;;493853;241;28045;-73
2024/03/14 04:58:15;;;;;;;14.00;6.80;;;5.30;99.90;;;;;;493953;241;27527;-73
2024/03/14 05:02:20;;;;;;;7.32;5.55;;;5.30;99.90;;;;;;493961;241;27485;-73
2024/03/14 05:04:21;;;;;;;9.88;5.30;;;5.40;99.90;;;;;;493929;241;27617;-73
2024/03/14 05:06:22;;;;;;;24.20;7.78;;;5.40;99.90;;;;;;493959;241;27509;-73
2024/03/14 05:08:24;;;;;;;16.92;7.18;;;5.40;99.90;;;;;;493940;241;27887;-72
2024/03/14 05:10:25;;;;;;;9.65;7.00;;;5.40;99.90;;;;;;493959;241;27963;-73
2024/03/14 05:12:27;;;;;;;18.60;6.72;;;5.50;99.90;;;;;;493931;241;27450;-73
2024/03/14 05:14:28;;;;;;;16.77;5.45;;;5.50;99.90;;;;;;493847;241;27512;-74
2024/03/14 05:16:30;;;;;;;10.13;5.28;;;5.50;99.90;;;;;;494010;241;27913;-74
2024/03/14 05:18:31;;;;;;;7.12;5.10;;;5.50;99.90;;;;;;493851;241;27491;-73
2024/03/14 05:20:31;;;;;;;19.70;6.22;;;5.40;99.90;;;;;;493839;241;28051;-73
2024/03/14 05:22:33;;;;;;;7.10;5.07;;;5.40;99.90;;;;;;493933;241;28015;-73
2024/03/14 05:24:36;;;;;;;5.60;4.80;;;5.40;99.90;;;;;;493941;241;27486;-73
2024/03/14 05:26:36;;;;;;;5.40;4.65;;;5.40;99.90;;;;;;493834;237;27608;-74
2024/03/14 05:28:36;;;;;;;4.70;4.12;;;5.40;99.90;;;;;;493890;241;27454;-73
2024/03/14 05:30:38;;;;;;;3.65;3.35;;;5.40;99.90;;;;;;493931;241;27509;-73
2024/03/14 05:32:39;;;;;;;3.72;3.37;;;5.30;99.90;;;;;;493959;241;27593;-73
2024/03/14 05:34:40;;;;;;;3.33;3.05;;;5.30;99.90;;;;;;493951;241;27899;-72
2024/03/14 05:36:41;;;;;;;4.00;3.60;;;5.20;99.90;;;;;;493961;241;27981;-74
2024/03/14 05:38:43;;;;;;;3.45;3.15;;;5.20;99.90;;;;;;493861;241;27474;-73
2024/03/14 05:40:45;;;;;;;3.72;3.42;;;5.20;99.90;;;;;;493882;241;27549;-73
2024/03/14 05:42:45;;;;;;;2.70;2.50;;;5.10;99.90;;;;;;493891;237;27545;-75
2024/03/14 05:44:50;;;;;;;3.00;2.80;;;5.20;99.90;;;;;;493933;241;27931;-72
2024/03/14 05:46:53;;;;;;;2.70;2.50;;;5.20;99.90;;;;;;493934;241;27918;-73
2024/03/14 05:48:52;;;;;;;3.05;2.85;;;5.20;99.90;;;;;;493693;241;27540;-74
2024/03/14 05:50:53;;;;;;;3.33;3.00;;;5.20;99.90;;;;;;493980;241;27518;-72
2024/03/14 05:52:55;;;;;;;3.00;2.80;;;5.20;99.90;;;;;;493810;241;27465;-73
2024/03/14 05:54:56;;;;;;;3.08;2.80;;;5.20;99.90;;;;;;493927;241;27540;-73
2024/03/14 05:56:57;;;;;;;3.83;3.15;;;5.20;99.90;;;;;;493958;241;27468;-73
2024/03/14 05:58:59;;;;;;;3.20;3.00;;;5.10;99.90;;;;;;493889;241;28469;-73
2024/03/14 06:01:03;;;;;;;2.95;2.75;;;5.10;99.90;;;;;;493931;241;28026;-73
2024/03/14 06:03:01;;;;;;;2.95;2.70;;;5.10;99.90;;;;;;493706;241;28022;-73
2024/03/14 06:05:03;;;;;;;3.00;2.70;;;5.10;99.90;;;;;;493951;241;27559;-73
2024/03/14 06:07:03;;;;;;;2.80;2.60;;;5.10;99.90;;;;;;493872;241;27459;-73
2024/03/14 06:09:04;;;;;;;2.75;2.55;;;5.10;99.90;;;;;;493880;241;27580;-73
2024/03/14 06:11:06;;;;;;;2.80;2.60;;;5.00;99.90;;;;;;493971;241;27614;-74
2024/03/14 06:13:08;;;;;;;2.53;2.33;;;5.10;99.90;;;;;;493960;241;27474;-73
2024/03/14 06:15:09;;;;;;;2.90;2.70;;;5.20;99.90;;;;;;493894;241;28378;-73
2024/03/14 06:17:10;;;;;;;4.60;3.92;;;5.30;99.90;;;;;;493976;241;28084;-73
2024/03/14 06:19:11;;;;;;;12.45;8.63;;;5.30;99.90;;;;;;493883;241;27560;-73
2024/03/14 06:21:12;;;;;;;10.68;7.07;;;5.30;99.90;;;;;;493955;241;27508;-73
2024/03/14 06:23:14;;;;;;;9.00;6.18;;;5.40;99.90;;;;;;493909;241;27486;-72
2024/03/14 06:25:15;;;;;;;7.75;5.82;;;5.40;99.90;;;;;;493917;241;27562;-73
2024/03/14 06:27:16;;;;;;;13.65;4.68;;;5.50;99.90;;;;;;493922;241;28013;-74
2024/03/14 06:29:17;;;;;;;4.18;3.78;;;5.50;99.90;;;;;;493862;241;27583;-73
2024/03/14 06:31:18;;;;;;;3.53;3.22;;;5.50;99.90;;;;;;493935;241;27536;-73
2024/03/14 06:33:20;;;;;;;3.65;2.95;;;5.60;99.90;;;;;;493756;241;27481;-73
2024/03/14 06:35:21;;;;;;;3.62;3.33;;;5.60;99.90;;;;;;493798;241;27926;-73
2024/03/14 06:37:23;;;;;;;2.78;2.58;;;5.60;99.90;;;;;;493793;241;28064;-73
2024/03/14 06:39:26;;;;;;;4.35;3.42;;;5.70;99.90;;;;;;493715;241;27554;-73
2024/03/14 06:41:25;;;;;;;3.45;3.03;;;5.70;99.90;;;;;;493722;241;27529;-73
2024/03/14 06:43:26;;;;;;;3.00;2.80;;;5.60;99.90;;;;;;493964;241;28000;-73
2024/03/14 06:45:27;;;;;;;3.60;2.90;;;5.70;99.90;;;;;;493944;241;27546;-72
2024/03/14 06:47:29;;;;;;;2.83;2.62;;;5.80;99.90;;;;;;493959;241;28024;-74
2024/03/14 06:49:31;;;;;;;5.20;3.85;;;5.80;99.90;;;;;;493884;241;27970;-73
2024/03/14 06:51:31;;;;;;;4.12;3.42;;;5.90;99.90;;;;;;493865;241;27518;-74
2024/03/14 06:53:32;;;;;;;5.40;3.50;;;5.90;99.90;;;;;;494002;241;27636;-74
2024/03/14 06:55:33;;;;;;;5.90;4.00;;;6.00;99.90;;;;;;493982;241;28817;-73
2024/03/14 06:57:35;;;;;;;8.57;4.10;;;6.00;99.90;;;;;;493939;241;27517;-74
2024/03/14 06:59:37;;;;;;;5.15;3.65;;;6.00;99.90;;;;;;493951;241;27482;-73
2024/03/14 07:01:38;;;;;;;7.78;4.57;;;6.00;99.90;;;;;;493945;241;27461;-73
2024/03/14 07:03:38;;;;;;;7.75;4.10;;;6.00;99.90;;;;;;493979;241;28018;-74
2024/03/14 07:05:41;;;;;;;6.68;4.60;;;6.00;99.90;;;;;;493972;241;27485;-72
2024/03/14 07:07:41;;;;;;;9.00;4.50;;;6.10;99.90;;;;;;493808;241;27498;-76
2024/03/14 07:09:43;;;;;;;10.52;5.35;;;6.00;99.90;;;;;;493946;241;27532;-72
2024/03/14 07:11:47;;;;;;;7.95;4.25;;;6.10;99.90;;;;;;494028;241;27574;-72
2024/03/14 07:13:48;;;;;;;8.00;5.10;;;6.10;99.90;;;;;;493795;241;27497;-74
2024/03/14 07:15:47;;;;;;;10.45;4.95;;;6.10;99.90;;;;;;493699;241;29380;-73
2024/03/14 07:17:47;;;;;;;5.25;4.10;;;6.10;99.90;;;;;;493889;241;27967;-74
2024/03/14 07:19:49;;;;;;;6.72;4.25;;;6.20;99.90;;;;;;494008;241;27498;-74
2024/03/14 07:21:59;;;;;;;7.95;4.82;;;6.30;99.90;;;;;;494011;241;27474;-73
2024/03/14 07:23:58;;;;;;;8.30;5.00;;;6.40;99.90;;;;;;493748;241;27632;-73
2024/03/14 07:25:59;;;;;;;10.90;6.13;;;6.50;99.90;;;;;;494023;241;28865;-75
2024/03/14 07:28:00;;;;;;;12.17;6.50;;;6.60;99.90;;;;;;493989;241;28934;-72
2024/03/14 07:30:01;;;;;;;6.30;4.97;;;6.60;99.90;;;;;;493992;241;27799;-74
2024/03/14 07:32:03;;;;;;;9.10;5.30;;;6.70;99.90;;;;;;493991;241;28399;-73
2024/03/14 07:34:07;;;;;;;10.35;5.72;;;6.80;99.90;;;;;;493976;241;29061;-73
2024/03/14 07:36:08;;;;;;;9.63;6.65;;;6.90;99.90;;;;;;493973;241;28114;-73
2024/03/14 07:38:09;;;;;;;6.90;5.87;;;7.00;99.90;;;;;;494011;241;27506;-74
2024/03/14 07:40:16;;;;;;;9.93;6.90;;;7.10;99.90;;;;;;494016;241;27606;-73
2024/03/14 07:42:11;;;;;;;8.70;6.57;;;7.20;99.90;;;;;;493528;241;27503;-73
2024/03/14 07:44:12;;;;;;;6.60;5.30;;;7.30;99.90;;;;;;494019;241;28079;-73
2024/03/14 07:46:14;;;;;;;9.50;6.63;;;7.30;99.90;;;;;;494007;241;28025;-73
2024/03/14 07:48:17;;;;;;;8.07;6.10;;;7.40;99.90;;;;;;494011;241;27937;-74
2024/03/14 07:50:16;;;;;;;9.53;5.63;;;7.30;99.90;;;;;;493821;241;28023;-73
2024/03/14 07:52:17;;;;;;;6.73;4.90;;;7.40;99.90;;;;;;493997;241;27869;-73
2024/03/14 07:54:19;;;;;;;7.90;4.70;;;7.40;99.90;;;;;;493893;241;27946;-73
2024/03/14 07:56:21;;;;;;;9.37;5.00;;;7.40;99.90;;;;;;494018;237;27921;-74
2024/03/14 07:58:22;;;;;;;6.73;5.07;;;7.50;99.90;;;;;;493946;241;27849;-74
2024/03/14 08:00:25;;;;;;;5.43;4.47;;;7.50;99.90;;;;;;493936;241;28408;-73
2024/03/14 08:02:24;;;;;;;6.63;4.93;;;7.50;99.90;;;;;;493772;241;28329;-73
2024/03/14 08:04:25;;;;;;;8.83;5.00;;;7.60;99.90;;;;;;493995;241;28650;-74
2024/03/14 08:06:27;;;;;;;6.97;5.20;;;7.70;99.90;;;;;;493990;237;28377;-73
2024/03/14 08:08:27;;;;;;;5.47;4.40;;;7.80;99.90;;;;;;493901;241;28571;-73
2024/03/14 08:10:29;;;;;;;6.10;4.70;;;7.90;99.90;;;;;;493906;237;27996;-73
2024/03/14 08:12:33;;;;;;;8.87;4.70;;;8.00;99.90;;;;;;493960;241;28003;-74
2024/03/14 08:14:33;;;;;;;4.80;3.93;;;8.00;99.90;;;;;;493742;241;28101;-74
2024/03/14 08:16:32;;;;;;;4.60;4.13;;;8.10;99.90;;;;;;493851;241;27482;-73
2024/03/14 08:18:35;;;;;;;5.07;4.57;;;8.20;99.90;;;;;;493925;241;28093;-73
2024/03/14 08:20:36;;;;;;;5.20;4.57;;;8.30;99.90;;;;;;493846;241;27952;-73
2024/03/14 08:22:36;;;;;;;6.03;4.90;;;8.40;99.90;;;;;;493924;237;27916;-73
2024/03/14 08:24:47;;;;;;;6.57;4.87;;;8.40;99.90;;;;;;493993;241;27981;-74
2024/03/14 08:26:47;;;;;;;9.60;6.00;;;8.60;99.90;;;;;;493631;241;28019;-72
2024/03/14 08:28:46;;;;;;;7.30;5.90;;;8.60;99.90;;;;;;493666;241;28014;-72
2024/03/14 08:30:47;;;;;;;8.47;5.83;;;8.70;99.90;;;;;;493962;241;27877;-74
2024/03/14 08:32:49;;;;;;;7.10;5.80;;;8.80;99.90;;;;;;493967;241;28014;-74
2024/03/14 08:34:51;;;;;;;7.00;5.60;;;8.90;99.90;;;;;;493906;241;27650;-74
2024/03/14 08:36:51;;;;;;;6.77;5.40;;;9.10;99.90;;;;;;493817;241;27838;-73
2024/03/14 08:38:52;;;;;;;7.67;5.40;;;9.10;99.90;;;;;;493907;241;27992;-74
2024/03/14 08:40:53;;;;;;;8.60;6.90;;;9.20;99.90;;;;;;493971;241;28459;-75
2024/03/14 08:42:55;;;;;;;7.90;6.60;;;9.40;99.90;;;;;;493957;241;27916;-74
2024/03/14 08:44:56;;;;;;;8.83;6.80;;;9.50;99.90;;;;;;493934;237;27936;-74
2024/03/14 08:46:57;;;;;;;7.80;5.80;;;9.60;99.90;;;;;;493936;241;27925;-74
2024/03/14 08:48:58;;;;;;;10.70;7.67;;;9.80;99.90;;;;;;493919;241;27774;-74
2024/03/14 08:51:00;;;;;;;8.87;6.97;;;10.00;99.90;;;;;;493847;241;28422;-74
2024/03/14 08:53:01;;;;;;;11.50;7.73;;;10.10;99.90;;;;;;493982;241;28495;-73
2024/03/14 08:55:05;;;;;;;8.50;6.63;;;10.10;99.90;;;;;;493958;241;28214;-74
2024/03/14 08:57:04;;;;;;;5.80;5.20;;;10.10;99.90;;;;;;493729;241;28042;-73
2024/03/14 08:59:05;;;;;;;8.77;6.10;;;10.20;99.90;;;;;;493950;238;28093;-74
2024/03/14 09:01:06;;;;;;;8.73;5.97;;;10.40;99.90;;;;;;493971;241;27987;-75
2024/03/14 09:03:08;;;;;;;7.80;6.00;;;10.50;99.90;;;;;;493951;241;28110;-73
2024/03/14 09:05:11;;;;;;;6.50;5.23;;;10.40;99.90;;;;;;493922;241;28219;-74
2024/03/14 09:07:10;;;;;;;7.30;4.27;;;10.50;99.90;;;;;;493682;238;28011;-74
2024/03/14 09:09:23;;;;;;;6.93;4.67;;;10.60;99.90;;;;;;493801;241;27797;-73
2024/03/14 09:11:13;;;;;;;5.93;4.20;;;10.50;99.90;;;;;;492968;241;27983;-73
2024/03/14 09:13:14;;;;;;;3.90;3.60;;;10.60;99.90;;;;;;493874;241;28349;-73
2024/03/14 09:15:15;;;;;;;8.13;4.07;;;10.70;99.90;;;;;;493922;237;28546;-74
2024/03/14 09:17:16;;;;;;;4.13;3.73;;;10.70;99.90;;;;;;493960;241;28443;-75
2024/03/14 09:19:17;;;;;;;5.57;3.70;;;10.80;99.90;;;;;;493907;237;28386;-73
2024/03/14 09:21:22;;;;;;;5.77;3.80;;;10.90;99.90;;;;;;493943;241;28176;-74
2024/03/14 09:23:25;;;;;;;5.70;3.73;;;11.00;99.90;;;;;;493926;241;28550;-73
2024/03/14 09:25:26;;;;;;;3.23;2.93;;;11.10;99.90;;;;;;493809;241;28120;-75
2024/03/14 09:27:25;;;;;;;3.97;3.57;;;11.20;99.90;;;;;;493848;241;28075;-74
2024/03/14 09:29:27;;;;;;;3.03;2.83;;;11.20;99.90;;;;;;493923;241;28178;-74
2024/03/14 09:31:28;;;;;;;4.97;3.40;;;11.20;99.90;;;;;;493921;241;27982;-73
2024/03/14 09:33:30;;;;;;;3.27;2.90;;;11.30;99.90;;;;;;493890;241;28149;-73
2024/03/14 09:35:30;;;;;;;3.60;2.80;;;11.30;99.90;;;;;;493944;241;28003;-75
2024/03/14 09:37:32;;;;;;;3.10;2.90;;;11.50;99.90;;;;;;493954;241;28157;-74
2024/03/14 09:39:35;;;;;;;3.70;3.23;;;11.60;99.90;;;;;;493892;241;28252;-74
2024/03/14 09:41:34;;;;;;;3.93;3.10;;;11.60;99.90;;;;;;493761;241;28646;-73
2024/03/14 09:43:36;;;;;;;3.20;2.83;;;11.60;99.90;;;;;;493976;241;28515;-74
2024/03/14 09:45:38;;;;;;;3.70;3.27;;;11.60;99.90;;;;;;493989;241;28727;-74
2024/03/14 09:47:38;;;;;;;4.20;2.53;;;11.50;99.90;;;;;;493820;241;28638;-73
2024/03/14 09:49:40;;;;;;;2.50;2.30;;;11.60;99.90;;;;;;493879;237;28448;-74
2024/03/14 09:51:40;;;;;;;3.27;2.97;;;11.70;99.90;;;;;;493823;237;28428;-72
2024/03/14 09:53:42;;;;;;;4.80;4.30;;;11.70;99.90;;;;;;493893;241;28185;-72
2024/03/14 09:55:43;;;;;;;2.87;2.67;;;11.70;99.90;;;;;;493958;241;28303;-73
2024/03/14 09:57:45;;;;;;;3.03;2.63;;;11.70;99.90;;;;;;493888;241;28200;-73
2024/03/14 09:59:45;;;;;;;2.77;2.50;;;11.80;99.90;;;;;;493869;241;28277;-73
2024/03/14 10:01:47;;;;;;;2.93;2.67;;;11.90;99.90;;;;;;493959;241;28433;-74
2024/03/14 10:03:48;;;;;;;2.40;2.20;;;12.00;99.90;;;;;;493963;241;28556;-73
2024/03/14 10:05:52;;;;;;;2.67;2.27;;;12.10;99.90;;;;;;493967;241;28905;-73
2024/03/14 10:07:50;;;;;;;2.87;2.60;;;12.20;99.90;;;;;;493571;241;28961;-73
2024/03/14 10:09:52;;;;;;;2.93;2.63;;;12.20;99.90;;;;;;493924;241;28904;-73
2024/03/14 10:11:53;;;;;;;2.53;2.33;;;12.30;99.90;;;;;;493973;241;28546;-73
2024/03/14 10:13:54;;;;;;;2.90;2.53;;;12.30;99.90;;;;;;493936;237;28422;-73
2024/03/14 10:15:57;;;;;;;3.07;2.60;;;;;;;;;;493925;241;28661;-75
2024/03/14 10:17:58;;;;;;;2.53;2.33;;;12.40;99.90;;;;;;493934;241;27710;-74
2024/03/14 10:19:59;;;;;;;2.37;2.00;;;12.40;99.90;;;;;;493978;241;28216;-74
2024/03/14 10:22:03;;;;;;;2.30;2.20;;;12.40;99.90;;;;;;493920;241;28622;-72
2024/03/14 10:24:05;;;;;;;1.90;1.80;;;12.50;99.90;;;;;;493929;241;28808;-73
2024/03/14 10:26:07;;;;;;;14.27;2.40;;;12.60;99.90;;;;;;493898;241;28843;-72
2024/03/14 10:28:09;;;;;;;2.30;2.10;;;12.70;99.90;;;;;;493752;241;28294;-73
2024/03/14 10:30:09;;;;;;;3.83;2.20;;;12.70;99.90;;;;;;493780;241;28548;-73
2024/03/14 10:32:10;;;;;;;2.27;2.17;;;12.60;99.90;;;;;;493904;241;28717;-73
2024/03/14 10:34:11;;;;;;;3.47;2.07;;;12.50;99.90;;;;;;493874;241;28823;-72
2024/03/14 10:36:13;;;;;;;2.17;1.97;;;12.50;99.90;;;;;;493918;241;28840;-73
2024/03/14 10:38:14;;;;;;;1.60;1.50;;;12.40;99.90;;;;;;493913;241;28857;-73